createdAt,value
2022-09-10T00:00:58.113Z,70.80
2022-09-10T00:04:05.377Z,70.80
2022-09-10T00:07:11.324Z,70.99
2022-09-10T00:10:18.810Z,71.01
2022-09-10T00:13:25.341Z,70.99
2022-09-10T00:16:32.314Z,71.15
2022-09-10T00:19:38.221Z,71.08
2022-09-10T00:22:44.096Z,71.13
2022-09-10T00:25:51.185Z,71.24
2022-09-10T00:28:59.659Z,71.36
2022-09-10T00:32:06.085Z,71.46
2022-09-10T00:35:12.313Z,71.45
2022-09-10T00:38:19.136Z,71.54
2022-09-10T00:41:27.059Z,71.50
2022-09-10T00:44:57.091Z,71.54
2022-09-10T00:48:06.730Z,71.65
2022-09-10T00:51:13.210Z,71.67
2022-09-10T00:54:21.472Z,71.79
2022-09-10T00:57:30.446Z,71.76
2022-09-10T01:00:37.031Z,71.82
2022-09-10T01:03:44.741Z,72.03
2022-09-10T01:06:52.530Z,72.00
2022-09-10T01:10:00.058Z,72.03
2022-09-10T01:13:21.914Z,72.14
2022-09-10T01:16:35.906Z,72.14
2022-09-10T01:20:24.999Z,72.25
2022-09-10T01:24:05.470Z,72.30
2022-09-10T01:27:32.942Z,72.38
2022-09-10T01:30:44.932Z,72.32
2022-09-10T01:33:57.347Z,72.49
2022-09-10T01:37:10.257Z,72.50
2022-09-10T01:40:18.955Z,72.58
2022-09-10T01:43:24.937Z,72.81
2022-09-10T01:46:35.950Z,73.02
2022-09-10T01:49:51.771Z,73.06
2022-09-10T01:53:05.249Z,73.10
2022-09-10T01:56:22.039Z,73.24
2022-09-10T01:59:34.725Z,73.33
2022-09-10T02:02:44.750Z,73.22
2022-09-10T02:05:54.463Z,73.31
2022-09-10T02:09:01.848Z,73.35
2022-09-10T02:12:09.077Z,73.32
2022-09-10T02:15:15.343Z,73.27
2022-09-10T02:18:22.550Z,73.27
2022-09-10T02:21:28.912Z,73.41
2022-09-10T02:24:34.787Z,73.49
2022-09-10T02:27:40.731Z,73.53
2022-09-10T02:30:48.405Z,73.55
2022-09-10T02:33:54.801Z,73.62
2022-09-10T02:37:00.984Z,73.60
2022-09-10T02:40:09.099Z,73.80
2022-09-10T02:43:14.977Z,73.73
2022-09-10T02:46:21.734Z,73.81
2022-09-10T02:49:28.438Z,73.87
2022-09-10T02:52:34.563Z,73.90
2022-09-10T02:55:38.858Z,73.94
2022-09-10T02:58:58.748Z,73.93
2022-09-10T03:02:05.130Z,73.95
2022-09-10T03:05:12.378Z,74.04
2022-09-10T03:08:18.261Z,74.09
2022-09-10T03:11:27.706Z,74.20
2022-09-10T03:14:34.310Z,74.19
2022-09-10T03:17:40.173Z,74.10
2022-09-10T03:20:46.194Z,74.23
2022-09-10T03:23:53.938Z,74.23
2022-09-10T03:27:00.089Z,74.44
2022-09-10T03:30:06.550Z,74.48
2022-09-10T03:33:14.050Z,74.55
2022-09-10T03:36:21.094Z,74.63
2022-09-10T03:39:27.101Z,74.71
2022-09-10T03:42:31.319Z,74.80
2022-09-10T03:45:37.236Z,74.90
2022-09-10T03:48:43.866Z,74.91
2022-09-10T03:51:50.002Z,74.95
2022-09-10T03:54:56.171Z,75.07
2022-09-10T03:58:02.183Z,75.11
2022-09-10T04:01:07.068Z,75.08
2022-09-10T04:04:12.965Z,75.27
2022-09-10T04:07:18.819Z,75.23
2022-09-10T04:10:25.231Z,75.20
2022-09-10T04:13:31.818Z,75.36
2022-09-10T04:16:37.807Z,75.29
2022-09-10T04:19:42.081Z,75.32
2022-09-10T04:22:47.962Z,75.51
2022-09-10T04:25:54.090Z,75.50
2022-09-10T04:28:58.316Z,75.62
2022-09-10T04:32:04.985Z,75.68
2022-09-10T04:35:15.520Z,75.72
2022-09-10T04:38:21.513Z,75.65
2022-09-10T04:41:25.710Z,75.75
2022-09-10T04:44:33.176Z,75.78
2022-09-10T04:47:39.366Z,75.88
2022-09-10T04:51:05.472Z,75.96
2022-09-10T04:54:13.638Z,75.87
2022-09-10T04:57:19.490Z,75.96
2022-09-10T05:00:26.720Z,75.96
2022-09-10T05:03:32.678Z,75.96
2022-09-10T05:06:38.703Z,75.90
2022-09-10T05:09:43.176Z,76.09
2022-09-10T05:12:49.343Z,76.08
2022-09-10T05:15:55.201Z,76.09
2022-09-10T05:19:01.263Z,76.14
2022-09-10T05:22:05.782Z,76.17
2022-09-10T05:25:12.408Z,76.38
2022-09-10T05:28:18.271Z,76.34
2022-09-10T05:31:24.224Z,76.33
2022-09-10T05:34:30.182Z,76.36
2022-09-10T05:37:36.247Z,76.41
2022-09-10T05:40:43.468Z,76.40
2022-09-10T05:43:49.451Z,76.48
2022-09-10T05:46:53.768Z,76.46
2022-09-10T05:49:59.645Z,76.71
2022-09-10T05:53:05.579Z,76.58
2022-09-10T05:56:12.030Z,76.55
2022-09-10T05:59:17.978Z,76.51
2022-09-10T06:02:24.526Z,76.59
2022-09-10T06:05:30.498Z,76.71
2022-09-10T06:08:37.055Z,76.71
2022-09-10T06:11:43.421Z,76.81
2022-09-10T06:14:49.685Z,76.74
2022-09-10T06:17:56.823Z,76.85
2022-09-10T06:21:08.840Z,77.00
2022-09-10T06:24:15.842Z,77.02
2022-09-10T06:27:23.425Z,77.00
2022-09-10T06:30:29.331Z,76.93
2022-09-10T06:33:36.189Z,77.00
2022-09-10T06:36:43.740Z,77.01
2022-09-10T06:39:49.914Z,77.23
2022-09-10T06:42:56.058Z,77.15
2022-09-10T06:46:02.075Z,77.11
2022-09-10T06:49:06.498Z,77.20
2022-09-10T06:52:13.243Z,77.19
2022-09-10T06:55:19.298Z,77.31
2022-09-10T06:58:24.702Z,77.27
2022-09-10T07:01:31.058Z,77.39
2022-09-10T07:04:37.200Z,77.16
2022-09-10T07:07:43.623Z,77.44
2022-09-10T07:10:49.606Z,77.39
2022-09-10T07:13:54.589Z,77.39
2022-09-10T07:17:00.479Z,77.48
2022-09-10T07:20:07.730Z,77.55
2022-09-10T07:23:14.799Z,77.59
2022-09-10T07:26:21.473Z,77.44
2022-09-10T07:29:31.416Z,77.58
2022-09-10T07:32:37.423Z,77.56
2022-09-10T07:35:43.356Z,77.60
2022-09-10T07:38:52.546Z,77.58
2022-09-10T07:41:59.738Z,77.59
2022-09-10T07:45:07.281Z,77.56
2022-09-10T07:48:13.484Z,77.69
2022-09-10T07:51:19.402Z,77.68
2022-09-10T07:54:25.266Z,77.81
2022-09-10T07:57:31.710Z,77.86
2022-09-10T08:00:37.567Z,77.87
2022-09-10T08:03:43.831Z,77.96
2022-09-10T08:06:49.707Z,77.96
2022-09-10T08:09:55.546Z,77.96
2022-09-10T08:13:01.410Z,78.09
2022-09-10T08:16:12.225Z,78.07
2022-09-10T08:19:18.294Z,78.04
2022-09-10T08:22:22.500Z,78.13
2022-09-10T08:25:28.401Z,78.12
2022-09-10T08:28:34.543Z,78.00
2022-09-10T08:31:41.337Z,78.04
2022-09-10T08:34:47.487Z,77.96
2022-09-10T08:37:53.639Z,77.97
2022-09-10T08:41:00.868Z,77.92
2022-09-10T08:44:13.661Z,77.91
2022-09-10T08:47:30.130Z,77.89
2022-09-10T08:50:42.270Z,78.04
2022-09-10T08:53:55.922Z,77.93
2022-09-10T08:57:03.785Z,78.03
2022-09-10T09:00:16.186Z,78.09
2022-09-10T09:03:28.670Z,78.20
2022-09-10T09:06:39.740Z,78.26
2022-09-10T09:09:45.921Z,78.28
2022-09-10T09:13:17.545Z,78.24
2022-09-10T09:16:52.410Z,78.52
2022-09-10T09:20:06.165Z,78.41
2022-09-10T09:23:21.426Z,78.28
2022-09-10T09:26:36.133Z,78.42
2022-09-10T09:29:47.296Z,78.30
2022-09-10T09:32:53.649Z,78.21
2022-09-10T09:36:03.193Z,78.18
2022-09-10T09:39:18.275Z,78.05
2022-09-10T09:42:30.508Z,78.13
2022-09-10T09:45:42.606Z,78.18
2022-09-10T09:48:53.641Z,78.12
2022-09-10T09:52:02.995Z,78.09
2022-09-10T09:55:18.904Z,78.09
2022-09-10T09:58:34.779Z,78.01
2022-09-10T10:01:42.995Z,77.65
2022-09-10T10:05:04.990Z,77.56
2022-09-10T10:08:31.045Z,77.82
2022-09-10T10:11:49.900Z,77.96
2022-09-10T10:14:55.800Z,77.72
2022-09-10T10:18:03.493Z,77.65
2022-09-10T10:21:19.856Z,77.89
2022-09-10T10:24:34.170Z,77.90
2022-09-10T10:27:45.431Z,77.93
2022-09-10T10:30:56.829Z,78.08
2022-09-10T10:34:22.146Z,78.06
2022-09-10T10:37:39.490Z,78.10
2022-09-10T10:40:50.870Z,78.11
2022-09-10T10:44:09.460Z,78.08
2022-09-10T10:47:29.339Z,78.02
2022-09-10T10:50:47.838Z,78.00
2022-09-10T10:54:15.374Z,78.05
2022-09-10T10:57:32.385Z,77.97
2022-09-10T11:00:45.594Z,78.02
2022-09-10T11:04:01.173Z,78.06
2022-09-10T11:07:14.219Z,78.06
2022-09-10T11:10:25.285Z,78.03
2022-09-10T11:13:38.073Z,78.18
2022-09-10T11:16:49.107Z,78.27
2022-09-10T11:20:27.082Z,78.23
2022-09-10T11:23:39.712Z,78.37
2022-09-10T11:26:51.267Z,78.38
2022-09-10T11:30:03.821Z,78.40
2022-09-10T11:33:18.002Z,78.30
2022-09-10T11:36:29.569Z,78.44
2022-09-10T11:39:39.860Z,78.44
2022-09-10T11:42:51.429Z,78.49
2022-09-10T11:46:03.280Z,78.29
2022-09-10T11:49:18.211Z,78.28
2022-09-10T11:52:25.895Z,78.27
2022-09-10T11:55:56.074Z,78.33
2022-09-10T11:59:19.586Z,78.38
2022-09-10T12:03:03.708Z,78.41
2022-09-10T12:06:15.237Z,78.53
2022-09-10T12:09:28.109Z,78.64
2022-09-10T12:12:41.938Z,78.62
2022-09-10T12:15:57.073Z,78.73
2022-09-10T12:19:05.747Z,78.69
2022-09-10T12:22:21.829Z,78.51
2022-09-10T12:25:34.377Z,78.55
2022-09-10T12:29:07.382Z,78.52
2022-09-10T12:32:30.954Z,78.25
2022-09-10T12:35:48.706Z,78.09
2022-09-10T12:39:10.668Z,78.18
2022-09-10T12:42:36.931Z,78.20
2022-09-10T12:46:05.774Z,78.14
2022-09-10T12:49:17.802Z,78.04
2022-09-10T12:52:32.356Z,77.73
2022-09-10T12:55:53.427Z,77.60
2022-09-10T12:59:18.446Z,77.59
2022-09-10T13:02:31.978Z,77.52
2022-09-10T13:05:50.627Z,77.59
2022-09-10T13:08:57.444Z,77.57
2022-09-10T13:12:08.333Z,77.40
2022-09-10T13:15:22.567Z,77.46
2022-09-10T13:18:31.654Z,77.55
2022-09-10T13:21:57.064Z,77.44
2022-09-10T13:25:02.338Z,77.22
2022-09-10T13:28:52.355Z,76.92
2022-09-10T13:32:03.918Z,76.95
2022-09-10T13:35:41.305Z,77.06
2022-09-10T13:39:20.866Z,77.08
2022-09-10T13:42:55.706Z,77.01
2022-09-10T13:46:07.813Z,77.07
2022-09-10T13:49:20.338Z,76.92
2022-09-10T13:52:30.414Z,76.90
2022-09-10T13:55:37.192Z,76.86
2022-09-10T13:58:49.857Z,76.86
2022-09-10T14:01:56.881Z,77.02
2022-09-10T14:05:02.815Z,76.69
2022-09-10T14:08:08.514Z,76.57
2022-09-10T14:11:22.082Z,76.14
2022-09-10T14:14:31.661Z,76.06
2022-09-10T14:17:43.157Z,76.30
2022-09-10T14:20:49.393Z,76.03
2022-09-10T14:23:57.294Z,76.18
2022-09-10T14:27:16.788Z,75.93
2022-09-10T14:30:29.594Z,76.10
2022-09-10T14:33:39.668Z,76.24
2022-09-10T14:36:45.703Z,76.33
2022-09-10T14:39:49.935Z,76.15
2022-09-10T14:43:14.057Z,76.08
2022-09-10T14:46:50.214Z,75.91
2022-09-10T14:49:57.421Z,75.83
2022-09-10T14:53:03.786Z,75.97
2022-09-10T14:56:24.202Z,75.87
2022-09-10T14:59:33.803Z,75.62
2022-09-10T15:02:41.999Z,75.42
2022-09-10T15:05:48.365Z,75.51
2022-09-10T15:08:56.347Z,75.38
2022-09-10T15:12:07.219Z,75.39
2022-09-10T15:15:17.799Z,75.07
2022-09-10T15:18:23.881Z,75.16
2022-09-10T15:21:31.007Z,75.18
2022-09-10T15:26:57.038Z,75.22
2022-09-10T15:30:02.918Z,75.23
2022-09-10T15:33:07.711Z,75.25
2022-09-10T15:36:13.788Z,75.16
2022-09-10T15:39:19.780Z,75.13
2022-09-10T15:42:23.978Z,75.19
2022-09-10T15:45:29.823Z,75.30
2022-09-10T15:48:36.265Z,75.32
2022-09-10T15:51:42.503Z,75.33
2022-09-10T15:54:48.363Z,75.41
2022-09-10T15:57:55.037Z,75.55
2022-09-10T16:01:05.044Z,75.62
2022-09-10T16:04:11.166Z,75.61
2022-09-10T16:07:17.031Z,75.73
2022-09-10T16:10:23.373Z,75.74
2022-09-10T16:13:29.567Z,75.70
2022-09-10T16:16:37.402Z,75.73
2022-09-10T16:19:43.279Z,75.73
2022-09-10T16:22:49.122Z,75.99
2022-09-10T16:25:56.052Z,75.95
2022-09-10T16:29:03.713Z,75.93
2022-09-10T16:32:09.715Z,75.99
2022-09-10T16:35:13.926Z,76.10
2022-09-10T16:38:19.776Z,76.10
2022-09-10T16:41:27.122Z,76.19
2022-09-10T16:44:33.749Z,76.31
2022-09-10T16:47:39.611Z,76.36
2022-09-10T16:50:45.465Z,76.44
2022-09-10T16:53:57.705Z,76.52
2022-09-10T16:57:03.545Z,76.50
2022-09-10T17:00:14.091Z,76.55
2022-09-10T17:03:20.342Z,76.57
2022-09-10T17:06:28.062Z,76.65
2022-09-10T17:09:33.951Z,76.89
2022-09-10T17:12:40.078Z,76.86
2022-09-10T17:15:46.016Z,76.99
2022-09-10T17:18:55.555Z,76.86
2022-09-10T17:22:01.853Z,77.01
2022-09-10T17:25:09.194Z,77.14
2022-09-10T17:28:16.150Z,77.06
2022-09-10T17:31:22.103Z,77.06
2022-09-10T17:34:27.285Z,77.06
2022-09-10T17:37:33.718Z,77.21
2022-09-10T17:40:39.592Z,77.23
2022-09-10T17:43:46.390Z,77.31
2022-09-10T17:46:52.477Z,77.24
2022-09-10T17:49:58.486Z,77.28
2022-09-10T17:53:03.099Z,77.37
2022-09-10T17:56:11.610Z,77.43
2022-09-10T17:59:17.458Z,77.50
2022-09-10T18:02:23.373Z,77.39
2022-09-10T18:05:29.285Z,77.48
2022-09-10T18:08:36.216Z,77.52
2022-09-10T18:11:43.197Z,77.42
2022-09-10T18:14:49.067Z,77.61
2022-09-10T18:17:55.841Z,77.73
2022-09-10T18:21:13.392Z,77.66
2022-09-10T18:24:22.505Z,77.83
2022-09-10T18:27:28.422Z,77.65
2022-09-10T18:30:34.605Z,77.75
2022-09-10T18:33:41.952Z,77.84
2022-09-10T18:36:48.033Z,77.74
2022-09-10T18:39:53.886Z,77.12
2022-09-10T18:42:59.747Z,76.62
2022-09-10T18:46:06.397Z,76.55
2022-09-10T18:49:17.869Z,76.86
2022-09-10T18:52:27.310Z,76.66
2022-09-10T18:55:33.177Z,76.95
2022-09-10T18:58:39.286Z,76.93
2022-09-10T19:01:45.762Z,76.92
2022-09-10T19:05:10.321Z,76.86
2022-09-10T19:08:17.622Z,76.92
2022-09-10T19:11:24.588Z,77.00
2022-09-10T19:14:32.359Z,76.96
2022-09-10T19:17:38.245Z,77.04
2022-09-10T19:20:44.120Z,77.03
2022-09-10T19:23:53.413Z,76.93
2022-09-10T19:27:02.167Z,77.03
2022-09-10T19:30:10.354Z,77.01
2022-09-10T19:33:16.995Z,77.13
2022-09-10T19:36:22.886Z,76.99
2022-09-10T19:39:28.814Z,77.11
2022-09-10T19:42:34.675Z,77.09
2022-09-10T19:45:41.219Z,77.19
2022-09-10T19:48:47.987Z,77.13
2022-09-10T19:51:54.201Z,77.29
2022-09-10T19:55:00.584Z,77.14
2022-09-10T19:58:06.442Z,77.37
2022-09-10T20:01:14.394Z,77.32
2022-09-10T20:04:20.402Z,77.32
2022-09-10T20:07:26.798Z,77.45
2022-09-10T20:10:33.731Z,77.31
2022-09-10T20:13:39.813Z,77.37
2022-09-10T20:16:44.998Z,77.41
2022-09-10T20:19:51.528Z,77.48
2022-09-10T20:23:00.479Z,77.57
2022-09-10T20:26:12.913Z,77.51
2022-09-10T20:29:20.611Z,77.39
2022-09-10T20:32:27.128Z,77.46
2022-09-10T20:35:32.985Z,77.33
2022-09-10T20:38:39.153Z,77.53
2022-09-10T20:41:45.980Z,77.55
2022-09-10T20:44:51.884Z,77.61
2022-09-10T20:47:59.914Z,77.55
2022-09-10T20:51:06.302Z,77.54
2022-09-10T20:54:15.199Z,77.60
2022-09-10T20:57:22.633Z,77.63
2022-09-10T21:00:28.531Z,77.68
2022-09-10T21:03:34.790Z,77.56
2022-09-10T21:06:40.918Z,77.65
2022-09-10T21:09:45.112Z,77.73
2022-09-10T21:12:51.003Z,77.90
2022-09-10T21:16:04.645Z,77.89
2022-09-10T21:19:13.781Z,77.97
2022-09-10T21:22:20.361Z,77.94
2022-09-10T21:25:26.226Z,77.87
2022-09-10T21:28:32.124Z,77.89
2022-09-10T21:31:38.286Z,77.83
2022-09-10T21:34:42.497Z,77.85
2022-09-10T21:37:48.578Z,77.91
2022-09-10T21:40:57.481Z,78.02
2022-09-10T21:44:06.225Z,78.06
2022-09-10T21:47:12.167Z,78.09
2022-09-10T21:50:18.387Z,78.09
2022-09-10T21:53:24.250Z,78.12
2022-09-10T21:56:30.676Z,78.08
2022-09-10T21:59:36.541Z,78.12
2022-09-10T22:02:42.470Z,77.89
2022-09-10T22:05:48.391Z,78.00
2022-09-10T22:08:58.583Z,77.97
2022-09-10T22:12:04.863Z,77.86
2022-09-10T22:15:12.298Z,77.94
2022-09-10T22:18:18.190Z,78.02
2022-09-10T22:21:24.653Z,77.99
2022-09-10T22:24:30.626Z,77.95
2022-09-10T22:27:36.518Z,77.98
2022-09-10T22:30:42.435Z,78.14
2022-09-10T22:33:53.111Z,78.04
2022-09-10T22:36:58.979Z,78.17
2022-09-10T22:40:05.346Z,78.04
2022-09-10T22:43:11.246Z,78.12
2022-09-10T22:46:17.308Z,78.07
2022-09-10T22:49:22.071Z,78.19
2022-09-10T22:52:27.933Z,78.19
2022-09-10T22:55:34.878Z,78.19
2022-09-10T22:58:41.527Z,78.40
2022-09-10T23:01:48.594Z,78.51
2022-09-10T23:04:54.507Z,78.31
2022-09-10T23:08:00.377Z,78.43
2022-09-10T23:11:15.327Z,78.20
2022-09-10T23:14:22.245Z,78.14
2022-09-10T23:17:28.099Z,78.20
2022-09-10T23:20:33.982Z,78.24
2022-09-10T23:23:39.829Z,78.14
2022-09-10T23:26:46.342Z,78.26
2022-09-10T23:29:52.229Z,78.12
2022-09-10T23:32:58.098Z,78.18
2022-09-10T23:36:04.530Z,78.04
2022-09-10T23:39:13.322Z,78.18
2022-09-10T23:42:19.187Z,78.06
2022-09-10T23:45:25.049Z,78.01
2022-09-10T23:48:30.941Z,78.03
2022-09-10T23:51:37.221Z,78.17
2022-09-10T23:54:43.115Z,78.05
2022-09-10T23:57:48.990Z,77.99
